createdAt,value
2019-01-10T00:00:23.969Z,3.53
2019-01-10T00:02:53.067Z,4.60
2019-01-10T00:05:22.053Z,3.50
2019-01-10T00:07:51.066Z,3.47
2019-01-10T00:10:19.827Z,3.37
2019-01-10T00:12:48.971Z,3.27
2019-01-10T00:15:20.576Z,3.67
2019-01-10T00:17:50.149Z,6.13
2019-01-10T00:20:19.264Z,5.10
2019-01-10T00:22:47.937Z,4.90
2019-01-10T00:25:16.851Z,3.80
2019-01-10T00:27:45.573Z,3.87
2019-01-10T00:30:21.419Z,3.30
2019-01-10T00:32:50.173Z,4.40
2019-01-10T00:35:18.955Z,4.40
2019-01-10T00:37:47.643Z,4.13
2019-01-10T00:40:17.320Z,2.70
2019-01-10T00:42:49.585Z,3.47
2019-01-10T00:45:17.383Z,3.50
2019-01-10T00:47:46.984Z,3.60
2019-01-10T00:50:21.370Z,3.77
2019-01-10T00:52:50.094Z,3.07
2019-01-10T00:55:18.841Z,3.20
2019-01-10T00:57:47.807Z,3.93
2019-01-10T01:00:21.708Z,3.20
2019-01-10T01:02:51.160Z,3.33
2019-01-10T01:05:20.389Z,3.37
2019-01-10T01:07:49.615Z,3.80
2019-01-10T01:10:21.363Z,3.50
2019-01-10T01:12:57.962Z,3.47
2019-01-10T01:15:20.786Z,3.20
2019-01-10T01:17:49.570Z,3.30
2019-01-10T01:20:23.355Z,3.23
2019-01-10T01:22:52.269Z,3.07
2019-01-10T01:25:21.498Z,3.10
2019-01-10T01:27:50.309Z,3.87
2019-01-10T01:30:21.436Z,3.10
2019-01-10T01:32:50.648Z,3.53
2019-01-10T01:35:21.546Z,2.90
2019-01-10T01:37:49.709Z,3.33
2019-01-10T01:40:21.817Z,2.97
2019-01-10T01:42:50.960Z,4.37
2019-01-10T01:45:20.415Z,3.20
2019-01-10T01:47:49.536Z,3.33
2019-01-10T01:50:23.410Z,3.90
2019-01-10T01:52:53.688Z,2.73
2019-01-10T01:55:22.566Z,2.93
2019-01-10T01:57:51.922Z,3.63
2019-01-10T02:00:22.658Z,3.17
2019-01-10T02:02:51.494Z,3.13
2019-01-10T02:05:20.445Z,3.40
2019-01-10T02:07:49.415Z,3.77
2019-01-10T02:10:21.209Z,4.30
2019-01-10T02:12:50.038Z,2.63
2019-01-10T02:15:18.755Z,3.80
2019-01-10T02:17:49.172Z,3.33
2019-01-10T02:20:18.172Z,3.20
2019-01-10T02:22:46.893Z,3.23
2019-01-10T02:25:16.554Z,3.47
2019-01-10T02:27:45.368Z,3.90
2019-01-10T02:30:21.970Z,3.20
2019-01-10T02:32:50.785Z,2.97
2019-01-10T02:35:19.702Z,3.80
2019-01-10T02:37:48.696Z,3.60
2019-01-10T02:40:17.834Z,3.00
2019-01-10T02:42:46.575Z,3.13
2019-01-10T02:45:16.797Z,2.93
2019-01-10T02:47:45.549Z,3.87
2019-01-10T02:50:17.188Z,4.10
2019-01-10T02:52:46.122Z,3.70
2019-01-10T02:55:14.952Z,3.47
2019-01-10T02:57:43.931Z,3.63
2019-01-10T03:00:15.756Z,4.50
2019-01-10T03:02:44.539Z,3.07
2019-01-10T03:05:13.480Z,3.20
2019-01-10T03:07:42.770Z,3.30
2019-01-10T03:10:14.565Z,4.33
2019-01-10T03:12:43.704Z,4.30
2019-01-10T03:15:12.571Z,2.87
2019-01-10T03:17:41.359Z,3.70
2019-01-10T03:20:16.156Z,3.63
2019-01-10T03:22:45.974Z,3.30
2019-01-10T03:25:15.036Z,4.10
2019-01-10T03:27:43.659Z,3.97
2019-01-10T03:30:15.263Z,3.13
2019-01-10T03:32:45.206Z,3.53
2019-01-10T03:35:14.040Z,3.50
2019-01-10T03:37:43.087Z,3.70
2019-01-10T03:40:17.320Z,4.30
2019-01-10T03:42:46.227Z,3.07
2019-01-10T03:45:17.062Z,3.77
2019-01-10T03:47:45.855Z,3.53
2019-01-10T03:50:16.828Z,3.27
2019-01-10T03:52:45.579Z,3.63
2019-01-10T03:55:14.902Z,4.10
2019-01-10T03:57:43.852Z,4.00
2019-01-10T04:00:20.882Z,3.33
2019-01-10T04:02:49.721Z,3.57
2019-01-10T04:05:18.719Z,4.17
2019-01-10T04:07:47.550Z,3.70
2019-01-10T04:10:17.030Z,3.60
2019-01-10T04:12:45.844Z,3.63
2019-01-10T04:15:16.221Z,4.70
2019-01-10T04:17:45.319Z,3.10
2019-01-10T04:20:16.162Z,5.17
2019-01-10T04:22:45.205Z,3.50
2019-01-10T04:25:14.631Z,3.63
2019-01-10T04:27:43.407Z,3.90
2019-01-10T04:30:15.290Z,3.83
2019-01-10T04:32:43.894Z,3.90
2019-01-10T04:35:12.819Z,3.73
2019-01-10T04:37:41.469Z,3.90
2019-01-10T04:40:13.607Z,4.13
2019-01-10T04:42:42.395Z,3.70
2019-01-10T04:45:11.520Z,3.60
2019-01-10T04:47:40.378Z,4.37
2019-01-10T04:50:11.304Z,5.23
2019-01-10T04:52:39.967Z,3.80
2019-01-10T04:55:09.907Z,3.47
2019-01-10T04:57:38.642Z,4.13
2019-01-10T05:00:19.256Z,3.10
2019-01-10T05:02:47.949Z,4.07
2019-01-10T05:05:17.042Z,2.80
2019-01-10T05:07:45.927Z,3.57
2019-01-10T05:10:14.719Z,4.27
2019-01-10T05:12:43.444Z,4.07
2019-01-10T05:15:16.559Z,4.10
2019-01-10T05:17:45.201Z,3.90
2019-01-10T05:20:18.424Z,4.43
2019-01-10T05:22:47.446Z,3.30
2019-01-10T05:25:16.476Z,3.93
2019-01-10T05:27:45.193Z,3.83
2019-01-10T05:30:19.416Z,3.70
2019-01-10T05:32:48.175Z,3.33
2019-01-10T05:35:16.934Z,3.97
2019-01-10T05:37:45.756Z,3.87
2019-01-10T05:40:14.960Z,3.30
2019-01-10T05:42:43.695Z,3.70
2019-01-10T05:45:15.105Z,3.93
2019-01-10T05:47:43.753Z,4.37
2019-01-10T05:50:14.389Z,4.00
2019-01-10T05:52:43.138Z,4.07
2019-01-10T05:55:13.981Z,4.20
2019-01-10T05:57:42.556Z,3.10
2019-01-10T06:00:17.303Z,4.30
2019-01-10T06:02:45.879Z,4.07
2019-01-10T06:05:14.979Z,4.20
2019-01-10T06:07:43.783Z,3.17
2019-01-10T06:10:15.467Z,3.60
2019-01-10T06:12:44.412Z,3.80
2019-01-10T06:15:15.251Z,3.93
2019-01-10T06:17:43.951Z,4.17
2019-01-10T06:20:15.913Z,3.40
2019-01-10T06:22:44.494Z,3.63
2019-01-10T06:25:13.438Z,3.17
2019-01-10T06:27:42.105Z,5.13
2019-01-10T06:30:16.999Z,3.50
2019-01-10T06:32:45.622Z,4.00
2019-01-10T06:35:14.312Z,4.20
2019-01-10T06:37:43.106Z,4.33
2019-01-10T06:40:15.004Z,3.90
2019-01-10T06:42:43.927Z,4.13
2019-01-10T06:45:14.571Z,4.60
2019-01-10T06:47:43.222Z,4.40
2019-01-10T06:50:14.974Z,5.00
2019-01-10T06:52:43.744Z,5.63
2019-01-10T06:55:12.931Z,5.73
2019-01-10T06:57:41.795Z,5.47
2019-01-10T07:00:18.896Z,5.17
2019-01-10T07:02:49.510Z,5.33
2019-01-10T07:05:18.151Z,5.30
2019-01-10T07:07:55.824Z,4.83
2019-01-10T07:10:26.013Z,4.33
2019-01-10T07:12:54.834Z,4.90
2019-01-10T07:15:23.578Z,4.33
2019-01-10T07:17:52.598Z,4.07
2019-01-10T07:20:21.352Z,5.00
2019-01-10T07:22:51.952Z,4.10
2019-01-10T07:25:20.876Z,4.33
2019-01-10T07:27:50.072Z,4.17
2019-01-10T07:30:24.387Z,4.53
2019-01-10T07:32:53.221Z,4.40
2019-01-10T07:35:21.894Z,4.57
2019-01-10T07:37:54.418Z,4.47
2019-01-10T07:40:23.144Z,4.47
2019-01-10T07:42:51.750Z,4.43
2019-01-10T07:45:22.686Z,4.60
2019-01-10T07:47:51.438Z,4.10
2019-01-10T07:50:24.053Z,3.57
2019-01-10T07:52:52.735Z,5.10
2019-01-10T07:55:21.473Z,4.70
2019-01-10T07:57:50.070Z,5.30
2019-01-10T08:00:19.888Z,4.20
2019-01-10T08:02:48.736Z,4.23
2019-01-10T08:05:17.994Z,4.97
2019-01-10T08:07:46.718Z,5.07
2019-01-10T08:10:17.117Z,5.40
2019-01-10T08:12:46.497Z,3.87
2019-01-10T08:15:17.960Z,5.23
2019-01-10T08:17:47.436Z,4.20
2019-01-10T08:20:17.627Z,4.40
2019-01-10T08:22:46.595Z,4.50
2019-01-10T08:25:15.258Z,4.27
2019-01-10T08:27:44.192Z,4.77
2019-01-10T08:30:17.997Z,4.70
2019-01-10T08:32:46.987Z,6.40
2019-01-10T08:35:18.300Z,5.20
2019-01-10T08:37:47.831Z,4.80
2019-01-10T08:40:16.631Z,4.40
2019-01-10T08:42:45.355Z,4.53
2019-01-10T08:45:21.500Z,4.50
2019-01-10T08:47:44.827Z,4.47
2019-01-10T08:50:19.395Z,4.73
2019-01-10T08:52:48.470Z,3.93
2019-01-10T08:55:17.437Z,3.73
2019-01-10T08:57:46.083Z,4.27
2019-01-10T09:00:17.288Z,4.40
2019-01-10T09:02:46.272Z,4.23
2019-01-10T09:05:15.407Z,4.80
2019-01-10T09:07:44.138Z,4.20
2019-01-10T09:10:15.828Z,5.17
2019-01-10T09:12:44.473Z,4.20
2019-01-10T09:15:13.222Z,4.70
2019-01-10T09:17:41.932Z,4.97
2019-01-10T09:20:13.175Z,4.57
2019-01-10T09:22:41.813Z,5.37
2019-01-10T09:25:10.490Z,4.53
2019-01-10T09:27:39.258Z,4.20
2019-01-10T09:30:14.116Z,4.03
2019-01-10T09:32:42.853Z,4.73
2019-01-10T09:35:11.715Z,4.73
2019-01-10T09:37:40.521Z,4.10
2019-01-10T09:40:12.513Z,3.87
2019-01-10T09:42:41.323Z,4.50
2019-01-10T09:45:12.797Z,5.70
2019-01-10T09:47:41.462Z,4.00
2019-01-10T09:50:15.482Z,4.57
2019-01-10T09:52:44.507Z,3.93
2019-01-10T09:55:14.119Z,5.40
2019-01-10T09:57:42.904Z,4.13
2019-01-10T10:00:23.440Z,5.20
2019-01-10T10:02:52.486Z,4.50
2019-01-10T10:05:21.291Z,5.20
2019-01-10T10:07:50.099Z,4.60
2019-01-10T10:10:20.019Z,5.20
2019-01-10T10:12:48.757Z,4.43
2019-01-10T10:15:18.776Z,4.10
2019-01-10T10:17:47.490Z,5.23
2019-01-10T10:20:21.573Z,5.03
2019-01-10T10:22:50.420Z,4.87
2019-01-10T10:25:19.209Z,5.00
2019-01-10T10:27:48.358Z,4.90
2019-01-10T10:30:19.463Z,5.30
2019-01-10T10:32:48.191Z,4.83
2019-01-10T10:35:17.483Z,5.33
2019-01-10T10:37:47.863Z,4.00
2019-01-10T10:40:18.717Z,3.97
2019-01-10T10:42:48.146Z,4.50
2019-01-10T10:45:18.680Z,5.37
2019-01-10T10:47:47.855Z,4.37
2019-01-10T10:50:21.819Z,4.33
2019-01-10T10:52:50.921Z,4.47
2019-01-10T10:55:19.710Z,5.00
2019-01-10T10:57:48.432Z,4.83
2019-01-10T11:00:22.937Z,5.23
2019-01-10T11:02:51.814Z,4.20
2019-01-10T11:05:20.583Z,4.00
2019-01-10T11:07:49.304Z,5.33
2019-01-10T11:10:19.664Z,5.30
2019-01-10T11:12:48.840Z,4.30
2019-01-10T11:15:17.897Z,4.63
2019-01-10T11:17:47.279Z,4.63
2019-01-10T11:20:18.428Z,3.97
2019-01-10T11:22:47.450Z,5.57
2019-01-10T11:25:18.792Z,5.60
2019-01-10T11:27:47.505Z,5.20
2019-01-10T11:30:18.930Z,4.23
2019-01-10T11:32:49.333Z,4.20
2019-01-10T11:35:17.956Z,4.57
2019-01-10T11:37:46.583Z,3.87
2019-01-10T11:40:17.798Z,4.50
2019-01-10T11:42:46.513Z,4.23
2019-01-10T11:45:17.667Z,4.50
2019-01-10T11:47:46.680Z,4.60
2019-01-10T11:50:16.726Z,4.90
2019-01-10T11:52:46.068Z,5.17
2019-01-10T11:55:15.214Z,4.80
2019-01-10T11:57:44.231Z,4.30
2019-01-10T12:00:21.390Z,4.93
2019-01-10T12:02:50.070Z,3.90
2019-01-10T12:05:19.167Z,4.50
2019-01-10T12:07:47.864Z,4.50
2019-01-10T12:10:16.528Z,4.50
2019-01-10T12:12:45.273Z,4.37
2019-01-10T12:15:14.409Z,4.23
2019-01-10T12:17:43.358Z,4.73
2019-01-10T12:20:16.899Z,4.13
2019-01-10T12:22:46.281Z,4.83
2019-01-10T12:25:16.718Z,5.83
2019-01-10T12:27:45.554Z,4.43
2019-01-10T12:30:17.449Z,4.27
2019-01-10T12:32:46.571Z,4.73
2019-01-10T12:35:15.459Z,4.43
2019-01-10T12:37:44.212Z,4.53
2019-01-10T12:40:14.730Z,4.67
2019-01-10T12:42:43.609Z,5.70
2019-01-10T12:45:20.493Z,5.13
2019-01-10T12:47:49.736Z,4.83
2019-01-10T12:50:26.420Z,5.53
2019-01-10T12:52:55.095Z,5.27
2019-01-10T12:55:23.815Z,4.77
2019-01-10T12:57:52.567Z,6.00
2019-01-10T13:00:23.491Z,5.47
2019-01-10T13:02:53.557Z,4.13
2019-01-10T13:05:22.287Z,5.40
2019-01-10T13:07:51.088Z,9.07
2019-01-10T13:10:20.646Z,5.60
2019-01-10T13:12:49.647Z,5.60
2019-01-10T13:15:20.824Z,5.17
2019-01-10T13:17:49.700Z,5.70
2019-01-10T13:20:18.455Z,5.63
2019-01-10T13:22:47.120Z,5.50
2019-01-10T13:25:20.101Z,7.13
2019-01-10T13:27:49.443Z,6.27
2019-01-10T13:30:20.394Z,6.57
2019-01-10T13:32:49.166Z,6.47
2019-01-10T13:35:18.389Z,6.30
2019-01-10T13:37:47.050Z,6.00
2019-01-10T13:40:16.511Z,7.40
2019-01-10T13:42:45.511Z,7.10
2019-01-10T13:45:16.021Z,6.10
2019-01-10T13:47:46.415Z,8.43
2019-01-10T13:50:20.221Z,7.80
2019-01-10T13:52:49.066Z,6.93
2019-01-10T13:55:19.296Z,6.90
2019-01-10T13:57:48.158Z,7.03
2019-01-10T14:00:22.983Z,7.10
2019-01-10T14:02:51.795Z,7.07
2019-01-10T14:05:20.808Z,8.70
2019-01-10T14:07:49.678Z,7.63
2019-01-10T14:10:19.084Z,7.40
2019-01-10T14:12:47.958Z,6.73
2019-01-10T14:15:22.426Z,6.80
2019-01-10T14:17:51.598Z,6.80
2019-01-10T14:20:20.338Z,6.00
2019-01-10T14:22:48.988Z,5.80
2019-01-10T14:25:17.893Z,5.67
2019-01-10T14:27:46.541Z,6.33
2019-01-10T14:30:21.385Z,6.37
2019-01-10T14:32:50.461Z,6.70
2019-01-10T14:35:20.003Z,7.97
2019-01-10T14:37:49.017Z,5.40
2019-01-10T14:40:18.688Z,6.47
2019-01-10T14:42:47.885Z,5.50
2019-01-10T14:45:18.098Z,5.27
2019-01-10T14:47:47.076Z,5.00
2019-01-10T14:50:18.799Z,4.37
2019-01-10T14:52:47.829Z,4.83
2019-01-10T14:55:16.990Z,3.80
2019-01-10T14:57:45.987Z,4.30
2019-01-10T15:00:17.898Z,5.23
2019-01-10T15:02:46.526Z,5.00
2019-01-10T15:05:15.359Z,4.77
2019-01-10T15:07:45.002Z,4.37
2019-01-10T15:10:14.351Z,4.50
2019-01-10T15:12:44.369Z,4.70
2019-01-10T15:15:15.798Z,4.97
2019-01-10T15:17:44.478Z,4.13
2019-01-10T15:20:16.051Z,4.57
2019-01-10T15:22:44.699Z,4.70
2019-01-10T15:25:13.931Z,4.33
2019-01-10T15:27:43.957Z,3.83
2019-01-10T15:30:15.681Z,3.33
2019-01-10T15:32:44.361Z,4.40
2019-01-10T15:35:14.065Z,4.13
2019-01-10T15:37:42.720Z,4.50
2019-01-10T15:40:14.504Z,4.37
2019-01-10T15:42:43.090Z,3.47
2019-01-10T15:45:12.642Z,3.47
2019-01-10T15:47:41.606Z,4.13
2019-01-10T15:50:18.389Z,3.87
2019-01-10T15:52:47.576Z,3.83
2019-01-10T15:55:18.810Z,4.07
2019-01-10T15:57:47.484Z,3.90
2019-01-10T16:00:18.926Z,3.63
2019-01-10T16:02:47.823Z,3.90
2019-01-10T16:05:16.812Z,3.80
2019-01-10T16:07:45.825Z,5.17
2019-01-10T16:10:16.566Z,3.40
2019-01-10T16:12:45.960Z,3.33
2019-01-10T16:15:17.023Z,4.27
2019-01-10T16:17:45.727Z,5.30
2019-01-10T16:20:15.451Z,3.73
2019-01-10T16:22:44.870Z,4.60
2019-01-10T16:25:15.519Z,4.40
2019-01-10T16:27:44.328Z,4.73
2019-01-10T16:30:18.963Z,3.87
2019-01-10T16:32:47.611Z,5.00
2019-01-10T16:35:16.686Z,9.37
2019-01-10T16:37:45.474Z,8.10
2019-01-10T16:40:16.689Z,6.97
2019-01-10T16:42:45.405Z,6.20
2019-01-10T16:45:19.766Z,5.90
2019-01-10T16:47:48.443Z,5.30
2019-01-10T16:50:17.734Z,5.60
2019-01-10T16:52:46.549Z,6.50
2019-01-10T16:55:15.608Z,5.87
2019-01-10T16:57:44.347Z,5.77
2019-01-10T17:00:16.584Z,4.60
2019-01-10T17:02:45.325Z,4.60
2019-01-10T17:05:14.210Z,6.03
2019-01-10T17:07:43.224Z,6.80
2019-01-10T17:10:12.254Z,5.53
2019-01-10T17:12:40.926Z,5.57
2019-01-10T17:15:13.668Z,5.00
2019-01-10T17:17:42.450Z,5.50
2019-01-10T17:20:19.423Z,5.10
2019-01-10T17:22:48.169Z,4.47
2019-01-10T17:25:17.454Z,4.80
2019-01-10T17:27:46.210Z,4.70
2019-01-10T17:30:17.901Z,5.43
2019-01-10T17:32:46.583Z,5.13
2019-01-10T17:35:18.332Z,4.70
2019-01-10T17:37:46.934Z,5.40
2019-01-10T17:40:18.351Z,5.23
2019-01-10T17:42:47.089Z,5.47
2019-01-10T17:45:18.515Z,6.27
2019-01-10T17:47:47.175Z,4.80
2019-01-10T17:50:18.166Z,5.73
2019-01-10T17:52:46.965Z,5.47
2019-01-10T17:55:16.668Z,5.03
2019-01-10T17:57:45.791Z,4.43
2019-01-10T18:00:20.085Z,5.83
2019-01-10T18:02:48.996Z,6.10
2019-01-10T18:05:18.110Z,6.37
2019-01-10T18:07:47.119Z,5.43
2019-01-10T18:10:17.948Z,5.20
2019-01-10T18:12:46.883Z,4.80
2019-01-10T18:15:17.995Z,5.60
2019-01-10T18:17:50.238Z,6.53
2019-01-10T18:20:20.679Z,6.17
2019-01-10T18:22:49.860Z,6.07
2019-01-10T18:25:18.645Z,5.67
2019-01-10T18:27:47.431Z,7.27
2019-01-10T18:30:18.837Z,7.43
2019-01-10T18:32:47.582Z,5.90
2019-01-10T18:35:17.020Z,6.53
2019-01-10T18:37:45.761Z,6.40
2019-01-10T18:40:16.642Z,6.50
2019-01-10T18:42:45.474Z,6.90
2019-01-10T18:45:22.603Z,7.20
2019-01-10T18:47:56.948Z,6.50
2019-01-10T18:50:23.799Z,5.73
2019-01-10T18:52:52.737Z,7.43
2019-01-10T18:55:21.651Z,6.43
2019-01-10T18:57:50.320Z,6.67
2019-01-10T19:00:24.218Z,7.73
2019-01-10T19:02:52.923Z,6.90
2019-01-10T19:05:21.938Z,6.20
2019-01-10T19:07:50.594Z,7.00
2019-01-10T19:10:23.445Z,6.90
2019-01-10T19:12:52.193Z,6.70
2019-01-10T19:15:21.079Z,7.00
2019-01-10T19:17:50.050Z,6.70
2019-01-10T19:20:26.596Z,7.63
2019-01-10T19:22:56.883Z,10.90
2019-01-10T19:25:25.517Z,9.97
2019-01-10T19:27:54.167Z,9.07
2019-01-10T19:30:27.735Z,7.90
2019-01-10T19:32:56.793Z,7.60
2019-01-10T19:35:25.466Z,8.57
2019-01-10T19:37:54.283Z,8.87
2019-01-10T19:40:24.729Z,7.47
2019-01-10T19:42:53.815Z,8.20
2019-01-10T19:45:23.071Z,8.70
2019-01-10T19:47:51.795Z,7.87
2019-01-10T19:50:22.552Z,8.10
2019-01-10T19:52:51.465Z,8.37
2019-01-10T19:55:21.202Z,8.40
2019-01-10T19:57:50.317Z,7.90
2019-01-10T20:00:27.994Z,8.97
2019-01-10T20:02:56.710Z,9.00
2019-01-10T20:05:25.721Z,9.03
2019-01-10T20:07:54.678Z,8.50
2019-01-10T20:10:23.696Z,7.30
2019-01-10T20:12:52.324Z,7.20
2019-01-10T20:15:21.531Z,8.53
2019-01-10T20:17:50.262Z,8.87
2019-01-10T20:20:27.601Z,8.90
2019-01-10T20:22:58.027Z,9.77
2019-01-10T20:25:27.349Z,8.20
2019-01-10T20:27:56.069Z,8.27
2019-01-10T20:30:24.943Z,8.87
2019-01-10T20:32:53.918Z,11.13
2019-01-10T20:35:23.011Z,8.67
2019-01-10T20:37:51.877Z,9.93
2019-01-10T20:40:20.701Z,10.67
2019-01-10T20:42:49.444Z,10.40
2019-01-10T20:45:18.180Z,9.27
2019-01-10T20:47:47.024Z,10.53
2019-01-10T20:50:17.431Z,10.20
2019-01-10T20:52:46.112Z,9.40
2019-01-10T20:55:18.960Z,8.20
2019-01-10T20:57:47.745Z,8.47
2019-01-10T21:00:19.154Z,9.00
2019-01-10T21:02:48.122Z,8.60
2019-01-10T21:05:16.847Z,8.90
2019-01-10T21:07:47.611Z,10.63
2019-01-10T21:10:19.140Z,8.87
2019-01-10T21:12:49.366Z,9.67
2019-01-10T21:15:20.677Z,9.23
2019-01-10T21:17:49.780Z,8.50
2019-01-10T21:20:18.700Z,9.30
2019-01-10T21:22:49.435Z,9.80
2019-01-10T21:25:18.834Z,8.00
2019-01-10T21:27:48.005Z,9.33
2019-01-10T21:30:22.599Z,8.37
2019-01-10T21:32:51.440Z,8.23
2019-01-10T21:35:20.796Z,7.60
2019-01-10T21:37:49.568Z,7.43
2019-01-10T21:40:20.982Z,8.03
2019-01-10T21:42:52.002Z,7.50
2019-01-10T21:45:21.526Z,7.10
2019-01-10T21:47:50.266Z,6.90
2019-01-10T21:50:24.018Z,6.83
2019-01-10T21:52:53.175Z,7.17
2019-01-10T21:55:22.181Z,7.00
2019-01-10T21:57:50.925Z,7.50
2019-01-10T22:00:28.155Z,6.70
2019-01-10T22:02:58.228Z,7.17
2019-01-10T22:05:27.172Z,7.67
2019-01-10T22:07:56.142Z,6.57
2019-01-10T22:10:24.905Z,7.70
2019-01-10T22:12:53.997Z,7.60
2019-01-10T22:15:22.714Z,7.47
2019-01-10T22:17:52.745Z,8.60
2019-01-10T22:20:22.348Z,7.33
2019-01-10T22:22:51.090Z,7.80
2019-01-10T22:25:20.038Z,6.90
2019-01-10T22:27:48.663Z,7.50
2019-01-10T22:30:19.919Z,7.43
2019-01-10T22:32:48.963Z,7.13
2019-01-10T22:35:19.884Z,7.60
2019-01-10T22:37:48.627Z,6.40
2019-01-10T22:40:19.430Z,6.23
2019-01-10T22:42:48.248Z,6.37
2019-01-10T22:45:17.747Z,6.60
2019-01-10T22:47:46.595Z,7.27
2019-01-10T22:50:20.640Z,6.97
2019-01-10T22:52:49.531Z,7.10
2019-01-10T22:55:18.752Z,7.00
2019-01-10T22:57:47.514Z,7.93
2019-01-10T23:00:49.067Z,7.50
2019-01-10T23:03:18.084Z,6.90
2019-01-10T23:05:47.278Z,7.53
2019-01-10T23:08:15.945Z,7.20
2019-01-10T23:10:44.890Z,7.67
2019-01-10T23:13:13.738Z,8.13
2019-01-10T23:15:43.444Z,8.27
2019-01-10T23:18:12.393Z,8.93
2019-01-10T23:20:41.742Z,8.17
2019-01-10T23:23:12.480Z,9.00
2019-01-10T23:25:41.340Z,7.63
2019-01-10T23:28:10.435Z,7.40
2019-01-10T23:30:50.380Z,8.17
2019-01-10T23:33:19.803Z,7.97
2019-01-10T23:35:51.576Z,8.43
2019-01-10T23:38:22.383Z,7.00
2019-01-10T23:40:51.159Z,7.70
2019-01-10T23:43:19.899Z,8.80
2019-01-10T23:45:48.622Z,8.47
2019-01-10T23:48:17.418Z,8.30
2019-01-10T23:50:46.208Z,8.40
2019-01-10T23:53:14.937Z,9.83
2019-01-10T23:55:43.674Z,9.10
2019-01-10T23:58:12.464Z,9.80
